Time;durP1;ratioP1;P1;durP2;ratioP2;P2;SDS_P1;SDS_P2;PMS_P1;PMS_P2;Temp;Humidity;BMP_temperature;BMP_pressure;BME280_temperature;BME280_humidity;BME280_pressure;Samples;Min_cycle;Max_cycle;Signal;HPM_P1;HPM_P2
2021/06/06 00:00:30;;;;;;;7.95;3.75;;;;;;;;;;4917317;29;20469;-65
2021/06/06 00:02:56;;;;;;;6.70;3.53;;;;;;;;;;4917620;29;20123;-69
2021/06/06 00:05:23;;;;;;;8.32;3.63;;;;;;;;;;4900218;29;20404;-66
2021/06/06 00:07:49;;;;;;;10.88;4.60;;;;;;;;;;4917337;29;20362;-64
2021/06/06 00:10:15;;;;;;;5.97;3.90;;;;;;;;;;4917222;29;20500;-68
2021/06/06 00:12:41;;;;;;;9.13;3.95;;;;;;;;;;4917062;29;20032;-64
2021/06/06 00:15:11;;;;;;;9.43;4.18;;;;;;;;;;4916767;29;20063;-64
2021/06/06 00:17:37;;;;;;;6.47;3.10;;;;;;;;;;4916595;29;20054;-64
2021/06/06 00:20:05;;;;;;;6.53;3.05;;;;;;;;;;4916686;29;20047;-64
2021/06/06 00:22:31;;;;;;;10.38;3.38;;;;;;;;;;4916809;29;20036;-64
2021/06/06 00:24:57;;;;;;;8.45;3.40;;;;;;;;;;4916858;29;20020;-66
2021/06/06 00:27:23;;;;;;;11.95;3.95;;;;;;;;;;4917030;29;20036;-65
2021/06/06 00:29:50;;;;;;;7.78;4.00;;;;;;;;;;4916869;29;20035;-66
2021/06/06 00:32:16;;;;;;;6.30;3.45;;;;;;;;;;4916707;29;20036;-65
2021/06/06 00:34:42;;;;;;;5.22;2.90;;;;;;;;;;4916538;29;20032;-65
2021/06/06 00:37:09;;;;;;;10.35;3.47;;;;;;;;;;4916838;29;20039;-67
2021/06/06 00:39:35;;;;;;;5.15;2.88;;;;;;;;;;4916035;29;20056;-63
2021/06/06 00:42:01;;;;;;;5.65;3.25;;;;;;;;;;4916439;29;20028;-66
2021/06/06 00:44:27;;;;;;;5.65;3.05;;;;;;;;;;4916424;29;20032;-65
2021/06/06 00:46:54;;;;;;;10.57;3.30;;;;;;;;;;4916256;29;20429;-67
2021/06/06 00:49:20;;;;;;;7.93;3.50;;;;;;;;;;4916618;29;20032;-66
2021/06/06 00:51:54;;;;;;;7.47;3.20;;;;;;;;;;4916933;29;20024;-64
2021/06/06 00:54:28;;;;;;;7.70;3.30;;;;;;;;;;4916664;29;20040;-65
2021/06/06 00:57:20;;;;;;;9.27;3.22;;;;;;;;;;4916266;29;20040;-65
2021/06/06 00:59:48;;;;;;;7.75;3.38;;;;;;;;;;4896628;29;20527;-67
2021/06/06 01:02:15;;;;;;;9.38;3.35;;;;;;;;;;4916520;29;20130;-66
2021/06/06 01:04:42;;;;;;;5.43;3.08;;;;;;;;;;4916203;29;20071;-65
2021/06/06 01:07:08;;;;;;;5.78;3.42;;;;;;;;;;4916318;29;20369;-67
2021/06/06 01:09:34;;;;;;;8.10;3.28;;;;;;;;;;4915989;29;20508;-67
2021/06/06 01:12:23;;;;;;;9.55;3.50;;;;;;;;;;4916322;29;20034;-65
2021/06/06 01:14:52;;;;;;;8.60;3.60;;;;;;;;;;4838737;29;20085;-64
2021/06/06 01:17:41;;;;;;;7.82;3.50;;;;;;;;;;4839080;29;20070;-69
2021/06/06 01:20:12;;;;;;;7.90;3.53;;;;;;;;;;4839325;29;20057;-65
2021/06/06 01:22:56;;;;;;;6.63;3.72;;;;;;;;;;4838900;29;20037;-65
2021/06/06 01:25:27;;;;;;;6.32;3.35;;;;;;;;;;4839253;29;20053;-65
2021/06/06 01:27:57;;;;;;;6.20;3.40;;;;;;;;;;4839274;29;20041;-65
2021/06/06 01:30:26;;;;;;;6.78;3.45;;;;;;;;;;4839059;29;20113;-65
2021/06/06 01:33:01;;;;;;;8.40;3.67;;;;;;;;;;4839064;29;20431;-65
2021/06/06 01:35:37;;;;;;;6.82;2.90;;;;;;;;;;4839242;29;20038;-65
2021/06/06 01:38:06;;;;;;;4.30;2.80;;;;;;;;;;4838813;29;20108;-64
2021/06/06 01:40:34;;;;;;;4.57;3.10;;;;;;;;;;4838985;29;20038;-64
2021/06/06 01:43:02;;;;;;;5.32;2.80;;;;;;;;;;4838563;29;20026;-64
2021/06/06 01:45:39;;;;;;;7.35;2.92;;;;;;;;;;4838202;29;20495;-64
2021/06/06 01:48:10;;;;;;;7.03;3.13;;;;;;;;;;4838833;29;20444;-65
2021/06/06 01:50:38;;;;;;;7.72;3.60;;;;;;;;;;4838598;29;20094;-65
2021/06/06 01:53:05;;;;;;;5.63;3.08;;;;;;;;;;4914399;29;20044;-66
2021/06/06 01:55:32;;;;;;;5.90;2.90;;;;;;;;;;4915150;29;20047;-65
2021/06/06 01:58:01;;;;;;;7.15;3.60;;;;;;;;;;4915597;29;20513;-65
2021/06/06 02:00:39;;;;;;;5.47;3.20;;;;;;;;;;4898481;29;20400;-65
2021/06/06 02:03:07;;;;;;;3.75;2.90;;;;;;;;;;4916688;29;20039;-65
2021/06/06 02:05:33;;;;;;;7.43;3.47;;;;;;;;;;4916258;29;20023;-67
2021/06/06 02:08:01;;;;;;;6.07;3.20;;;;;;;;;;4915106;29;20036;-67
2021/06/06 02:10:30;;;;;;;7.40;3.35;;;;;;;;;;4914970;29;20091;-65
2021/06/06 02:13:02;;;;;;;8.43;3.80;;;;;;;;;;4914783;29;20036;-68
2021/06/06 02:15:30;;;;;;;7.50;3.20;;;;;;;;;;4914630;29;20056;-65
2021/06/06 02:17:57;;;;;;;5.65;3.30;;;;;;;;;;4915121;29;20536;-65
2021/06/06 02:20:24;;;;;;;5.57;3.25;;;;;;;;;;4914512;29;20431;-64
2021/06/06 02:22:51;;;;;;;6.45;3.08;;;;;;;;;;4915075;29;20028;-64
2021/06/06 02:25:17;;;;;;;7.18;3.20;;;;;;;;;;4914763;29;20047;-64
2021/06/06 02:28:01;;;;;;;6.50;3.08;;;;;;;;;;4915283;29;20107;-66
2021/06/06 02:30:51;;;;;;;4.28;3.00;;;;;;;;;;4914972;29;20038;-68
2021/06/06 02:33:24;;;;;;;4.95;3.35;;;;;;;;;;4856161;29;20045;-64
2021/06/06 02:36:00;;;;;;;7.35;3.20;;;;;;;;;;4856219;29;20056;-64
2021/06/06 02:38:38;;;;;;;5.47;3.13;;;;;;;;;;4856642;29;20045;-64
2021/06/06 02:41:07;;;;;;;7.43;3.40;;;;;;;;;;4856118;29;20518;-64
2021/06/06 02:43:37;;;;;;;6.30;3.20;;;;;;;;;;4856181;29;20039;-64
2021/06/06 02:46:04;;;;;;;4.47;3.22;;;;;;;;;;4856244;29;20049;-63
2021/06/06 02:48:32;;;;;;;5.63;3.20;;;;;;;;;;4856203;29;20175;-64
2021/06/06 02:51:04;;;;;;;4.25;3.08;;;;;;;;;;4856238;29;20042;-65
2021/06/06 02:53:32;;;;;;;5.95;3.30;;;;;;;;;;4856310;29;20098;-64
2021/06/06 02:56:01;;;;;;;7.20;3.30;;;;;;;;;;4856306;29;20254;-64
2021/06/06 02:58:36;;;;;;;6.82;4.05;;;;;;;;;;4856295;29;20046;-64
2021/06/06 03:01:06;;;;;;;7.90;4.43;;;;;;;;;;4856082;29;20105;-64
2021/06/06 03:03:34;;;;;;;6.88;4.03;;;;;;;;;;4842009;29;20630;-65
2021/06/06 03:06:01;;;;;;;7.13;4.20;;;;;;;;;;4859873;29;20037;-64
2021/06/06 03:08:27;;;;;;;8.60;3.83;;;;;;;;;;4860282;29;20033;-70
2021/06/06 03:10:54;;;;;;;7.82;3.67;;;;;;;;;;4904116;29;20040;-64
2021/06/06 03:13:37;;;;;;;6.18;4.03;;;;;;;;;;4918145;29;20099;-64
2021/06/06 03:16:03;;;;;;;6.50;3.92;;;;;;;;;;4917962;29;20051;-62
2021/06/06 03:18:34;;;;;;;12.52;4.18;;;;;;;;;;4918111;29;20028;-70
2021/06/06 03:21:05;;;;;;;7.50;4.28;;;;;;;;;;4918671;29;20035;-64
2021/06/06 03:23:32;;;;;;;10.05;4.47;;;;;;;;;;4918032;29;20092;-64
2021/06/06 03:26:01;;;;;;;9.13;3.97;;;;;;;;;;4918493;29;20104;-65
2021/06/06 03:28:29;;;;;;;8.55;4.65;;;;;;;;;;4901012;29;20075;-65
2021/06/06 03:30:57;;;;;;;8.98;4.40;;;;;;;;;;4918362;29;20477;-69
2021/06/06 03:33:31;;;;;;;9.48;4.53;;;;;;;;;;4901165;29;20389;-64
2021/06/06 03:35:57;;;;;;;12.90;4.57;;;;;;;;;;4917819;29;20040;-65
2021/06/06 03:38:23;;;;;;;10.30;4.18;;;;;;;;;;4918342;29;20028;-64
2021/06/06 03:40:50;;;;;;;11.15;4.28;;;;;;;;;;4917676;29;20047;-64
2021/06/06 03:43:17;;;;;;;6.68;4.15;;;;;;;;;;4917809;29;20036;-67
2021/06/06 03:45:43;;;;;;;8.45;3.47;;;;;;;;;;4917589;29;20029;-65
2021/06/06 03:48:10;;;;;;;9.43;4.10;;;;;;;;;;4917611;29;20040;-65
2021/06/06 03:50:37;;;;;;;9.13;3.78;;;;;;;;;;4917425;29;20032;-66
2021/06/06 03:53:04;;;;;;;12.70;5.13;;;;;;;;;;4917476;29;20103;-64
2021/06/06 03:55:30;;;;;;;9.88;4.72;;;;;;;;;;4917505;29;20096;-65
2021/06/06 03:57:57;;;;;;;8.60;4.47;;;;;;;;;;4917474;29;20031;-69
2021/06/06 04:00:23;;;;;;;11.55;4.72;;;;;;;;;;4917553;29;20028;-65
2021/06/06 04:02:49;;;;;;;7.50;4.18;;;;;;;;;;4917418;29;20076;-67
2021/06/06 04:05:16;;;;;;;11.10;4.40;;;;;;;;;;4917402;29;20032;-66
2021/06/06 04:07:42;;;;;;;8.20;4.65;;;;;;;;;;4917164;29;20020;-65
2021/06/06 04:10:08;;;;;;;9.98;4.47;;;;;;;;;;4917046;29;20523;-64
2021/06/06 04:12:34;;;;;;;8.73;4.53;;;;;;;;;;4917322;29;20113;-65
2021/06/06 04:15:01;;;;;;;9.75;4.30;;;;;;;;;;4915849;29;20056;-65
2021/06/06 04:17:27;;;;;;;8.82;4.40;;;;;;;;;;4917002;29;20107;-65
2021/06/06 04:19:55;;;;;;;8.32;4.53;;;;;;;;;;4916743;29;20488;-65
2021/06/06 04:22:21;;;;;;;8.02;4.22;;;;;;;;;;4917043;29;20125;-67
2021/06/06 04:24:47;;;;;;;7.32;4.18;;;;;;;;;;4916805;29;20029;-67
2021/06/06 04:27:13;;;;;;;7.72;4.40;;;;;;;;;;4917034;29;20113;-66
2021/06/06 04:29:39;;;;;;;7.80;4.22;;;;;;;;;;4916616;29;20038;-65
2021/06/06 04:32:06;;;;;;;6.75;4.40;;;;;;;;;;4917118;29;20532;-66
2021/06/06 04:34:33;;;;;;;8.00;4.20;;;;;;;;;;4916703;29;20028;-68
2021/06/06 04:37:00;;;;;;;7.03;4.03;;;;;;;;;;4917100;29;20448;-66
2021/06/06 04:39:26;;;;;;;7.78;4.22;;;;;;;;;;4916793;29;20039;-66
2021/06/06 04:41:52;;;;;;;8.80;4.47;;;;;;;;;;4916521;29;20465;-67
2021/06/06 04:44:18;;;;;;;10.23;4.68;;;;;;;;;;4916691;29;20040;-66
2021/06/06 04:46:44;;;;;;;10.82;4.90;;;;;;;;;;4916840;29;20032;-67
2021/06/06 04:49:10;;;;;;;9.43;4.10;;;;;;;;;;4916562;29;20066;-66
2021/06/06 04:51:36;;;;;;;11.18;4.72;;;;;;;;;;4916631;29;20032;-65
2021/06/06 04:54:02;;;;;;;7.20;4.25;;;;;;;;;;4916638;29;20114;-68
2021/06/06 04:56:29;;;;;;;8.82;4.65;;;;;;;;;;4916321;29;20131;-67
2021/06/06 04:58:56;;;;;;;10.35;4.55;;;;;;;;;;4916539;29;20032;-66
2021/06/06 05:01:22;;;;;;;10.02;4.35;;;;;;;;;;4916103;29;20028;-64
2021/06/06 05:03:48;;;;;;;8.93;4.28;;;;;;;;;;4916348;29;20376;-64
2021/06/06 05:06:15;;;;;;;7.50;4.32;;;;;;;;;;4916211;29;20036;-66
2021/06/06 05:08:41;;;;;;;6.13;4.32;;;;;;;;;;4915955;29;20025;-66
2021/06/06 05:11:08;;;;;;;7.93;4.50;;;;;;;;;;4916213;29;20106;-66
2021/06/06 05:13:34;;;;;;;6.85;4.70;;;;;;;;;;4915914;29;20036;-66
2021/06/06 05:16:00;;;;;;;12.65;5.70;;;;;;;;;;4915677;29;20052;-67
2021/06/06 05:18:26;;;;;;;22.52;14.38;;;;;;;;;;4915785;29;20040;-70
2021/06/06 05:20:53;;;;;;;52.63;32.50;;;;;;;;;;4916124;29;20066;-66
2021/06/06 05:23:20;;;;;;;21.00;12.63;;;;;;;;;;4915807;29;20024;-66
2021/06/06 05:25:46;;;;;;;12.77;8.18;;;;;;;;;;4915416;29;20020;-68
2021/06/06 05:28:17;;;;;;;9.90;5.10;;;;;;;;;;4915622;29;20402;-66
2021/06/06 05:30:43;;;;;;;24.35;15.35;;;;;;;;;;4915716;29;20032;-66
2021/06/06 05:33:10;;;;;;;18.85;10.38;;;;;;;;;;4915935;29;20111;-66
2021/06/06 05:35:37;;;;;;;13.25;6.82;;;;;;;;;;4915668;29;20473;-67
2021/06/06 05:38:04;;;;;;;8.85;6.00;;;;;;;;;;4915647;29;20043;-71
2021/06/06 05:40:31;;;;;;;13.45;6.97;;;;;;;;;;4911339;29;20084;-65
2021/06/06 05:42:58;;;;;;;10.13;6.20;;;;;;;;;;4915923;29;20107;-70
2021/06/06 05:45:25;;;;;;;11.70;5.28;;;;;;;;;;4915526;29;20036;-66
2021/06/06 05:47:52;;;;;;;9.70;4.90;;;;;;;;;;4899039;29;20036;-65
2021/06/06 05:50:20;;;;;;;10.63;4.93;;;;;;;;;;4915673;29;20067;-70
2021/06/06 05:52:47;;;;;;;7.20;4.45;;;;;;;;;;4918202;29;20024;-64
2021/06/06 05:55:14;;;;;;;12.18;5.70;;;;;;;;;;4915834;29;20043;-70
2021/06/06 05:57:40;;;;;;;16.15;7.60;;;;;;;;;;4917392;29;20038;-70
2021/06/06 06:00:10;;;;;;;11.23;4.75;;;;;;;;;;4916183;29;20036;-71
2021/06/06 06:02:36;;;;;;;7.40;4.68;;;;;;;;;;4915587;29;20032;-65
2021/06/06 06:05:02;;;;;;;18.02;6.60;;;;;;;;;;4915293;29;20036;-66
2021/06/06 06:07:30;;;;;;;13.20;7.28;;;;;;;;;;4916343;29;20062;-68
2021/06/06 06:09:56;;;;;;;17.48;7.50;;;;;;;;;;4898199;29;20498;-72
2021/06/06 06:12:22;;;;;;;22.30;9.80;;;;;;;;;;4914805;29;20024;-65
2021/06/06 06:14:48;;;;;;;25.35;7.75;;;;;;;;;;4914740;29;20131;-64
2021/06/06 06:17:14;;;;;;;16.02;8.60;;;;;;;;;;4911030;29;20076;-66
2021/06/06 06:19:41;;;;;;;17.63;9.60;;;;;;;;;;4912783;29;20068;-63
2021/06/06 06:22:07;;;;;;;16.52;8.93;;;;;;;;;;4913091;29;20491;-70
2021/06/06 06:24:35;;;;;;;12.52;6.78;;;;;;;;;;4915105;29;20445;-62
2021/06/06 06:27:03;;;;;;;13.68;6.60;;;;;;;;;;4899987;29;20119;-69
2021/06/06 06:29:30;;;;;;;15.30;6.97;;;;;;;;;;4897596;29;20039;-64
2021/06/06 06:31:57;;;;;;;11.65;5.85;;;;;;;;;;4907562;29;20066;-65
2021/06/06 06:34:23;;;;;;;10.32;5.43;;;;;;;;;;4911454;29;20076;-67
2021/06/06 06:36:49;;;;;;;12.80;4.97;;;;;;;;;;4911545;29;20095;-67
2021/06/06 06:39:15;;;;;;;8.25;4.88;;;;;;;;;;4910438;29;20036;-63
2021/06/06 06:41:41;;;;;;;9.63;4.55;;;;;;;;;;4912964;29;20063;-62
2021/06/06 06:44:07;;;;;;;9.05;4.65;;;;;;;;;;4913663;29;20032;-67
2021/06/06 06:46:34;;;;;;;8.13;4.55;;;;;;;;;;4913728;29;20040;-67
2021/06/06 06:49:00;;;;;;;9.38;4.47;;;;;;;;;;4896874;29;20040;-69
2021/06/06 06:51:27;;;;;;;8.60;4.72;;;;;;;;;;4914585;29;20468;-65
2021/06/06 06:53:54;;;;;;;8.52;4.70;;;;;;;;;;4895691;29;20453;-66
2021/06/06 06:56:28;;;;;;;12.15;4.47;;;;;;;;;;4896490;29;20047;-69
2021/06/06 06:58:55;;;;;;;6.95;4.53;;;;;;;;;;4912719;29;20040;-69
2021/06/06 07:01:21;;;;;;;7.30;4.50;;;;;;;;;;4913458;29;20027;-66
2021/06/06 07:03:47;;;;;;;6.03;4.00;;;;;;;;;;4913275;29;20066;-65
2021/06/06 07:06:15;;;;;;;9.63;4.38;;;;;;;;;;4914089;29;20032;-64
2021/06/06 07:08:42;;;;;;;7.70;4.22;;;;;;;;;;4914696;29;20562;-65
2021/06/06 07:11:09;;;;;;;8.43;4.32;;;;;;;;;;4914805;29;20020;-65
2021/06/06 07:13:35;;;;;;;6.45;4.55;;;;;;;;;;4914789;29;20054;-65
2021/06/06 07:16:02;;;;;;;10.30;4.63;;;;;;;;;;4913409;29;20059;-65
2021/06/06 07:18:29;;;;;;;9.00;5.00;;;;;;;;;;4914918;29;20180;-65
2021/06/06 07:21:02;;;;;;;10.40;4.75;;;;;;;;;;4914834;29;20060;-63
2021/06/06 07:23:30;;;;;;;12.27;4.80;;;;;;;;;;4914677;29;20084;-64
2021/06/06 07:25:57;;;;;;;7.15;4.35;;;;;;;;;;4914266;29;20028;-67
2021/06/06 07:28:24;;;;;;;9.50;4.85;;;;;;;;;;4896856;29;20416;-66
2021/06/06 07:30:52;;;;;;;8.75;4.88;;;;;;;;;;4914684;29;20563;-66
2021/06/06 07:33:21;;;;;;;11.80;8.20;;;;;;;;;;4914973;29;20515;-67
2021/06/06 07:35:47;;;;;;;11.00;4.97;;;;;;;;;;4914841;29;20040;-65
2021/06/06 07:38:13;;;;;;;7.88;4.97;;;;;;;;;;4914472;29;20024;-67
2021/06/06 07:40:42;;;;;;;6.82;4.53;;;;;;;;;;4914516;29;20028;-67
2021/06/06 07:43:08;;;;;;;10.45;5.15;;;;;;;;;;4914070;29;20111;-64
2021/06/06 07:45:35;;;;;;;11.50;5.60;;;;;;;;;;4913461;29;20047;-65
2021/06/06 07:48:01;;;;;;;8.95;5.18;;;;;;;;;;4912837;29;20028;-66
2021/06/06 07:50:34;;;;;;;9.73;4.95;;;;;;;;;;4916156;29;20480;-65
2021/06/06 07:53:00;;;;;;;9.68;5.13;;;;;;;;;;4916894;29;20032;-64
2021/06/06 07:55:26;;;;;;;13.52;7.03;;;;;;;;;;4917188;29;20032;-67
2021/06/06 07:57:53;;;;;;;10.88;6.60;;;;;;;;;;4916415;29;20036;-66
2021/06/06 08:00:21;;;;;;;13.52;6.70;;;;;;;;;;4899297;29;20119;-68
2021/06/06 08:02:47;;;;;;;10.57;6.40;;;;;;;;;;4916251;29;20099;-67
2021/06/06 08:05:14;;;;;;;9.32;6.20;;;;;;;;;;4916398;29;20051;-68
2021/06/06 08:07:40;;;;;;;10.50;6.10;;;;;;;;;;4916325;29;20032;-66
2021/06/06 08:10:08;;;;;;;14.00;6.82;;;;;;;;;;4916216;29;20032;-68
2021/06/06 08:12:34;;;;;;;13.50;7.35;;;;;;;;;;4916454;29;20092;-67
2021/06/06 08:15:00;;;;;;;12.35;6.20;;;;;;;;;;4916443;29;20400;-68
2021/06/06 08:17:26;;;;;;;18.05;6.60;;;;;;;;;;4916546;29;20032;-68
2021/06/06 08:19:52;;;;;;;11.38;6.05;;;;;;;;;;4916915;29;20102;-67
2021/06/06 08:22:19;;;;;;;18.75;6.72;;;;;;;;;;4917035;29;20028;-67
2021/06/06 08:24:45;;;;;;;12.35;6.97;;;;;;;;;;4917165;29;20358;-64
2021/06/06 08:27:11;;;;;;;12.38;6.55;;;;;;;;;;4917190;29;20473;-66
2021/06/06 08:29:40;;;;;;;10.57;6.82;;;;;;;;;;4916947;29;20103;-68
2021/06/06 08:32:07;;;;;;;14.60;6.65;;;;;;;;;;4916826;29;20024;-67
2021/06/06 08:34:33;;;;;;;13.43;6.72;;;;;;;;;;4916577;29;20031;-64
2021/06/06 08:36:59;;;;;;;9.98;6.28;;;;;;;;;;4915799;29;20055;-67
2021/06/06 08:39:27;;;;;;;10.20;5.90;;;;;;;;;;4916869;29;20024;-66
2021/06/06 08:41:59;;;;;;;8.55;6.13;;;;;;;;;;4917232;29;20039;-66
2021/06/06 08:44:30;;;;;;;16.40;7.47;;;;;;;;;;4916928;29;20039;-67
2021/06/06 08:47:02;;;;;;;9.35;6.18;;;;;;;;;;4917368;29;20028;-66
2021/06/06 08:49:28;;;;;;;;;;;;;;;;;;4917296;29;20038;-66
2021/06/06 08:52:03;;;;;;;9.80;6.10;;;;;;;;;;4916920;29;20618;-65
2021/06/06 08:54:36;;;;;;;13.63;6.68;;;;;;;;;;4916492;29;20043;-65
2021/06/06 08:57:12;;;;;;;21.00;6.97;;;;;;;;;;4916587;29;20036;-66
2021/06/06 08:59:41;;;;;;;9.73;6.75;;;;;;;;;;4916286;29;20055;-65
2021/06/06 09:02:14;;;;;;;12.57;6.40;;;;;;;;;;4916714;29;20091;-66
2021/06/06 09:04:40;;;;;;;10.57;7.07;;;;;;;;;;4916846;29;20020;-66
2021/06/06 09:07:09;;;;;;;11.40;6.80;;;;;;;;;;4916632;29;20372;-66
2021/06/06 09:09:40;;;;;;;12.80;6.68;;;;;;;;;;4916246;29;20032;-66
2021/06/06 09:12:07;;;;;;;13.27;6.55;;;;;;;;;;4916445;29;20503;-66
2021/06/06 09:14:34;;;;;;;10.35;7.47;;;;;;;;;;4916040;29;20476;-65
2021/06/06 09:17:02;;;;;;;13.93;8.05;;;;;;;;;;4916250;29;20051;-65
2021/06/06 09:19:39;;;;;;;12.98;7.95;;;;;;;;;;4916228;29;20024;-66
2021/06/06 09:22:05;;;;;;;13.98;8.48;;;;;;;;;;4916301;29;20035;-66
2021/06/06 09:24:41;;;;;;;14.10;7.47;;;;;;;;;;4916305;29;20088;-65
2021/06/06 09:27:12;;;;;;;10.90;8.18;;;;;;;;;;4916338;29;20036;-65
2021/06/06 09:29:38;;;;;;;10.50;7.55;;;;;;;;;;4915917;29;20035;-65
2021/06/06 09:32:05;;;;;;;15.95;8.55;;;;;;;;;;4916320;29;20043;-66
2021/06/06 09:34:31;;;;;;;20.05;8.30;;;;;;;;;;4915935;29;20024;-66
2021/06/06 09:37:15;;;;;;;15.27;8.65;;;;;;;;;;4916009;29;20032;-65
2021/06/06 09:39:46;;;;;;;16.00;9.30;;;;;;;;;;4916134;29;20024;-65
2021/06/06 09:42:27;;;;;;;16.25;9.13;;;;;;;;;;4916170;29;20369;-65
2021/06/06 09:45:20;;;;;;;15.15;10.18;;;;;;;;;;4915905;29;20511;-65
2021/06/06 09:47:55;;;;;;;15.27;8.95;;;;;;;;;;4886797;29;20035;-65
2021/06/06 09:50:22;;;;;;;14.05;7.72;;;;;;;;;;4915417;29;20083;-65
2021/06/06 09:52:48;;;;;;;12.50;8.70;;;;;;;;;;4915737;29;20028;-65
2021/06/06 09:55:16;;;;;;;12.73;7.25;;;;;;;;;;4915999;29;20115;-65
2021/06/06 09:57:43;;;;;;;13.07;8.35;;;;;;;;;;4915751;29;20070;-65
2021/06/06 10:00:18;;;;;;;20.30;9.90;;;;;;;;;;4916108;29;20079;-65
2021/06/06 10:02:57;;;;;;;12.52;8.65;;;;;;;;;;4915698;29;20028;-65
2021/06/06 10:05:30;;;;;;;15.85;8.35;;;;;;;;;;4915220;29;20397;-66
2021/06/06 10:07:58;;;;;;;13.43;8.32;;;;;;;;;;4915954;29;20098;-66
2021/06/06 10:10:39;;;;;;;13.18;7.80;;;;;;;;;;4915210;29;20028;-65
2021/06/06 10:13:08;;;;;;;14.73;9.18;;;;;;;;;;4914305;29;20047;-65
2021/06/06 10:15:48;;;;;;;11.80;8.23;;;;;;;;;;4914691;29;20412;-65
2021/06/06 10:18:14;;;;;;;16.10;8.05;;;;;;;;;;4915068;29;20067;-65
2021/06/06 10:20:42;;;;;;;12.40;8.00;;;;;;;;;;4914494;29;20032;-65
2021/06/06 10:23:16;;;;;;;11.35;7.72;;;;;;;;;;4914955;29;20028;-65
2021/06/06 10:25:42;;;;;;;11.75;7.38;;;;;;;;;;4915047;29;20051;-65
2021/06/06 10:28:09;;;;;;;13.95;8.52;;;;;;;;;;4914353;29;20028;-65
2021/06/06 10:30:42;;;;;;;13.65;7.35;;;;;;;;;;4914156;29;20100;-65
2021/06/06 10:33:17;;;;;;;12.82;8.50;;;;;;;;;;4910941;29;20063;-65
2021/06/06 10:35:43;;;;;;;13.90;7.53;;;;;;;;;;4911236;29;20036;-64
2021/06/06 10:38:09;;;;;;;10.20;6.97;;;;;;;;;;4911120;29;20107;-65
2021/06/06 10:40:38;;;;;;;13.98;7.22;;;;;;;;;;4911196;29;20020;-65
2021/06/06 10:43:23;;;;;;;16.25;8.10;;;;;;;;;;4914243;29;20021;-65
2021/06/06 10:45:52;;;;;;;10.57;6.68;;;;;;;;;;4914903;29;20428;-65
2021/06/06 10:48:25;;;;;;;11.98;7.38;;;;;;;;;;4914729;29;20111;-65
2021/06/06 10:50:53;;;;;;;12.65;7.35;;;;;;;;;;4897674;29;20051;-65
2021/06/06 10:53:19;;;;;;;11.45;6.72;;;;;;;;;;4914527;29;20151;-65
2021/06/06 10:55:55;;;;;;;11.95;6.78;;;;;;;;;;4914730;29;20043;-65
2021/06/06 10:58:30;;;;;;;11.48;5.80;;;;;;;;;;4914888;29;20024;-65
2021/06/06 11:01:04;;;;;;;13.77;6.85;;;;;;;;;;4915180;29;20436;-65
2021/06/06 11:03:34;;;;;;;10.57;5.45;;;;;;;;;;4915201;29;20087;-65
2021/06/06 11:06:01;;;;;;;12.90;6.93;;;;;;;;;;4914927;29;20095;-65
2021/06/06 11:08:27;;;;;;;15.23;6.55;;;;;;;;;;4914734;29;20036;-65
2021/06/06 11:10:57;;;;;;;6.93;4.60;;;;;;;;;;4914512;29;20421;-64
2021/06/06 11:13:35;;;;;;;8.15;4.57;;;;;;;;;;4914152;29;20020;-64
2021/06/06 11:16:03;;;;;;;7.00;4.85;;;;;;;;;;4914624;29;20066;-65
2021/06/06 11:18:29;;;;;;;8.77;4.50;;;;;;;;;;4914387;29;20032;-65
2021/06/06 11:20:55;;;;;;;8.25;4.80;;;;;;;;;;4914281;29;20028;-65
2021/06/06 11:23:38;;;;;;;9.25;4.53;;;;;;;;;;4897581;29;20111;-65
2021/06/06 11:26:17;;;;;;;7.03;4.55;;;;;;;;;;4917826;29;20407;-65
2021/06/06 11:28:43;;;;;;;9.70;4.95;;;;;;;;;;4918662;29;20043;-65
2021/06/06 11:31:30;;;;;;;8.88;4.70;;;;;;;;;;4917965;29;20113;-65
2021/06/06 11:33:56;;;;;;;7.25;4.50;;;;;;;;;;4918162;29;20159;-65
2021/06/06 11:36:33;;;;;;;10.18;4.72;;;;;;;;;;4918056;29;20511;-65
2021/06/06 11:39:10;;;;;;;11.35;5.20;;;;;;;;;;4918281;29;20032;-66
2021/06/06 11:41:41;;;;;;;14.27;4.97;;;;;;;;;;4918222;29;20035;-65
2021/06/06 11:44:13;;;;;;;9.38;4.78;;;;;;;;;;4918157;29;20445;-65
2021/06/06 11:46:47;;;;;;;6.45;4.25;;;;;;;;;;4918194;29;20051;-65
2021/06/06 11:49:35;;;;;;;9.40;4.63;;;;;;;;;;4917820;29;20107;-65
2021/06/06 11:52:37;;;;;;;8.05;4.85;;;;;;;;;;4916538;29;20059;-65
2021/06/06 11:55:23;;;;;;;8.65;5.30;;;;;;;;;;4839330;29;20396;-65
2021/06/06 11:57:52;;;;;;;10.82;6.22;;;;;;;;;;4840618;29;20052;-64
2021/06/06 12:00:20;;;;;;;10.95;6.30;;;;;;;;;;4840161;29;20056;-65
2021/06/06 12:02:46;;;;;;;12.23;5.93;;;;;;;;;;4840396;29;20438;-65
2021/06/06 12:05:12;;;;;;;9.57;4.82;;;;;;;;;;4825308;29;20037;-65
2021/06/06 12:07:44;;;;;;;9.82;5.25;;;;;;;;;;4840238;29;20037;-65
2021/06/06 12:10:20;;;;;;;10.87;7.13;;;;;;;;;;4840380;29;20478;-65
2021/06/06 12:12:50;;;;;;;10.95;5.75;;;;;;;;;;4840419;29;20380;-65
2021/06/06 12:15:16;;;;;;;8.55;5.55;;;;;;;;;;4839867;29;20072;-64
2021/06/06 12:17:42;;;;;;;15.40;8.57;;;;;;;;;;4840512;29;20156;-65
2021/06/06 12:20:12;;;;;;;7.95;4.97;;;;;;;;;;4840175;29;20034;-66
2021/06/06 12:22:40;;;;;;;24.45;12.85;;;;;;;;;;4840414;29;20104;-67
2021/06/06 12:25:12;;;;;;;10.98;5.70;;;;;;;;;;4840294;29;20113;-65
2021/06/06 12:27:46;;;;;;;5.85;4.32;;;;;;;;;;4840309;29;20042;-66
2021/06/06 12:30:22;;;;;;;8.45;5.68;;;;;;;;;;4909522;29;20064;-66
2021/06/06 12:32:50;;;;;;;11.68;6.15;;;;;;;;;;4917500;29;20027;-65
2021/06/06 12:35:18;;;;;;;10.27;5.40;;;;;;;;;;4917022;29;20032;-65
2021/06/06 12:37:49;;;;;;;12.80;7.65;;;;;;;;;;4916613;29;20040;-66
2021/06/06 12:40:17;;;;;;;11.88;7.97;;;;;;;;;;4917334;29;20380;-66
2021/06/06 12:42:45;;;;;;;14.13;9.90;;;;;;;;;;4917142;29;20036;-66
2021/06/06 12:45:13;;;;;;;18.27;10.65;;;;;;;;;;4917089;29;20032;-66
2021/06/06 12:47:41;;;;;;;13.93;8.50;;;;;;;;;;4900043;29;20040;-66
2021/06/06 12:50:08;;;;;;;16.05;10.85;;;;;;;;;;4917010;29;20108;-66
2021/06/06 12:52:39;;;;;;;14.20;7.88;;;;;;;;;;4917760;29;20051;-66
2021/06/06 12:55:29;;;;;;;12.95;8.95;;;;;;;;;;4917045;29;20102;-66
2021/06/06 12:58:01;;;;;;;10.35;7.50;;;;;;;;;;4907201;29;20048;-66
2021/06/06 13:00:29;;;;;;;10.50;7.63;;;;;;;;;;4917071;29;20376;-66
2021/06/06 13:02:56;;;;;;;10.60;7.07;;;;;;;;;;4917106;29;20572;-66
2021/06/06 13:05:31;;;;;;;8.02;5.50;;;;;;;;;;4916930;29;20401;-66
2021/06/06 13:07:58;;;;;;;10.75;7.78;;;;;;;;;;4916742;29;20035;-67
2021/06/06 13:10:30;;;;;;;12.05;8.52;;;;;;;;;;4916534;29;20032;-66
2021/06/06 13:12:56;;;;;;;11.18;8.57;;;;;;;;;;4916966;29;20024;-66
2021/06/06 13:15:32;;;;;;;9.25;8.05;;;;;;;;;;4916474;29;20079;-67
2021/06/06 13:17:59;;;;;;;12.10;9.23;;;;;;;;;;4916528;29;20028;-67
2021/06/06 13:20:30;;;;;;;9.18;7.45;;;;;;;;;;4916451;29;20025;-66
2021/06/06 13:22:57;;;;;;;9.95;6.13;;;;;;;;;;4916234;29;20080;-66
2021/06/06 13:25:29;;;;;;;12.23;8.10;;;;;;;;;;4916165;29;20103;-66
2021/06/06 13:27:55;;;;;;;11.52;9.13;;;;;;;;;;4915304;29;20039;-66
2021/06/06 13:30:24;;;;;;;10.43;8.05;;;;;;;;;;4916091;29;20035;-66
2021/06/06 13:32:52;;;;;;;12.18;9.75;;;;;;;;;;4913831;29;20024;-67
2021/06/06 13:35:18;;;;;;;13.02;10.40;;;;;;;;;;4912216;29;20035;-66
2021/06/06 13:37:45;;;;;;;14.60;10.18;;;;;;;;;;4912102;29;20047;-66
2021/06/06 13:40:13;;;;;;;11.38;8.75;;;;;;;;;;4911789;29;20105;-66
2021/06/06 13:42:39;;;;;;;10.93;9.07;;;;;;;;;;4913521;29;20028;-67
2021/06/06 13:45:06;;;;;;;12.93;9.10;;;;;;;;;;4915965;29;20123;-66
2021/06/06 13:47:32;;;;;;;10.98;9.27;;;;;;;;;;4916245;29;20038;-67
2021/06/06 13:49:58;;;;;;;16.63;10.60;;;;;;;;;;4898639;29;20456;-66
2021/06/06 13:52:25;;;;;;;17.33;11.07;;;;;;;;;;4915836;29;20489;-66
2021/06/06 13:54:51;;;;;;;13.32;10.20;;;;;;;;;;4915650;29;20063;-66
2021/06/06 13:57:18;;;;;;;12.15;10.02;;;;;;;;;;4915475;29;20036;-66
2021/06/06 13:59:44;;;;;;;14.52;11.55;;;;;;;;;;4915612;29;20080;-65
2021/06/06 14:02:11;;;;;;;9.93;8.77;;;;;;;;;;4915441;29;20069;-66
2021/06/06 14:04:38;;;;;;;10.43;8.15;;;;;;;;;;4915938;29;20079;-65
2021/06/06 14:07:04;;;;;;;9.23;6.65;;;;;;;;;;4915439;29;20033;-65
2021/06/06 14:09:30;;;;;;;8.63;6.47;;;;;;;;;;4915653;29;20575;-65
2021/06/06 14:12:01;;;;;;;8.57;6.57;;;;;;;;;;4915774;29;20028;-66
2021/06/06 14:14:27;;;;;;;8.30;6.10;;;;;;;;;;4915111;29;20037;-65
2021/06/06 14:16:56;;;;;;;8.35;6.50;;;;;;;;;;4915325;29;20114;-65
2021/06/06 14:19:23;;;;;;;9.77;6.60;;;;;;;;;;4915036;29;20028;-64
2021/06/06 14:21:50;;;;;;;7.35;5.40;;;;;;;;;;4915161;29;20520;-65
2021/06/06 14:24:17;;;;;;;5.57;4.63;;;;;;;;;;4914793;29;20481;-64
2021/06/06 14:26:46;;;;;;;6.55;4.85;;;;;;;;;;4914843;29;20032;-66
2021/06/06 14:29:12;;;;;;;5.95;4.68;;;;;;;;;;4915103;29;20035;-66
2021/06/06 14:31:39;;;;;;;5.20;4.47;;;;;;;;;;4915231;29;20028;-66
2021/06/06 14:34:06;;;;;;;7.00;5.15;;;;;;;;;;4915170;29;20098;-66
2021/06/06 14:36:32;;;;;;;6.15;4.80;;;;;;;;;;4915303;29;20043;-65
2021/06/06 14:38:58;;;;;;;6.03;5.25;;;;;;;;;;4914868;29;20488;-65
2021/06/06 14:41:26;;;;;;;5.13;4.40;;;;;;;;;;4915138;29;20115;-65
2021/06/06 14:43:52;;;;;;;6.88;5.18;;;;;;;;;;4914707;29;20027;-67
2021/06/06 14:46:21;;;;;;;8.95;5.75;;;;;;;;;;4914454;29;20400;-66